Time;durP1;ratioP1;P1;durP2;ratioP2;P2;SDS_P1;SDS_P2;PMS_P1;PMS_P2;Temp;Humidity;BMP_temperature;BMP_pressure;BME280_temperature;BME280_humidity;BME280_pressure;Samples;Min_cycle;Max_cycle;Signal;HPM_P1;HPM_P2
2023/04/26 08:05:31;;;;;;;6.38;3.83;;;;;;;6.28;88.44;101788.16;5108884;27;20414;-70
2023/04/26 08:08:00;;;;;;;16.13;4.80;;;;;;;6.26;88.59;101792.88;5102635;28;20179;-74
2023/04/26 08:10:29;;;;;;;14.02;4.03;;;;;;;6.32;89.18;101798.41;5088391;28;20029;-72
2023/04/26 08:12:56;;;;;;;11.00;4.75;;;;;;;6.47;97.33;101801.19;5086351;28;20123;-72
2023/04/26 08:15:21;;;;;;;11.80;3.90;;;;;;;6.56;83.76;101808.22;5086627;28;20020;-71
2023/04/26 08:17:47;;;;;;;9.23;2.60;;;;;;;6.65;76.75;101805.50;5074657;28;20073;-70
2023/04/26 08:20:13;;;;;;;11.32;2.95;;;;;;;6.73;75.25;101808.13;5103336;28;20024;-70
2023/04/26 08:22:38;;;;;;;6.78;3.60;;;;;;;6.77;78.24;101797.88;5110274;28;20016;-69
2023/04/26 08:25:04;;;;;;;8.05;3.47;;;;;;;6.76;77.16;101796.19;5109686;28;20055;-70
2023/04/26 08:27:30;;;;;;;8.25;2.20;;;;;;;6.77;70.70;101798.72;5108829;28;20024;-70
2023/04/26 08:29:56;;;;;;;12.70;2.63;;;;;;;6.81;71.81;101797.34;5109852;28;20028;-69
2023/04/26 08:32:21;;;;;;;9.20;2.58;;;;;;;6.84;71.08;101791.63;5098564;28;20035;-69
2023/04/26 08:34:47;;;;;;;9.00;1.90;;;;;;;6.83;68.60;101795.31;5103389;28;20463;-69
2023/04/26 08:37:24;;;;;;;11.15;2.25;;;;;;;6.89;70.94;101793.78;5104845;28;20032;-70
2023/04/26 08:40:00;;;;;;;5.70;2.20;;;;;;;6.98;68.27;101802.66;5104267;28;20025;-69
2023/04/26 08:42:31;;;;;;;14.95;3.03;;;;;;;7.06;74.36;101794.50;5104771;28;20071;-70
2023/04/26 08:45:07;;;;;;;12.77;3.42;;;;;;;7.11;72.29;101792.13;5104213;28;20052;-69
2023/04/26 08:47:47;;;;;;;7.68;2.40;;;;;;;7.16;74.52;101789.72;5102412;28;20032;-70
2023/04/26 08:50:23;;;;;;;7.25;2.53;;;;;;;7.15;68.24;101790.72;5105070;28;20120;-74
2023/04/26 08:52:52;;;;;;;10.98;2.83;;;;;;;7.04;65.63;101786.59;5104722;28;20028;-75
2023/04/26 08:55:18;;;;;;;6.97;2.40;;;;;;;7.09;65.40;101786.06;5101509;28;20020;-72
2023/04/26 08:57:49;;;;;;;9.27;2.72;;;;;;;7.10;66.28;101798.53;5084727;28;20522;-71
2023/04/26 09:00:16;;;;;;;9.82;2.75;;;;;;;7.19;67.00;101788.53;5081084;28;20027;-72
2023/04/26 09:02:52;;;;;;;4.40;2.60;;;;;;;7.32;65.79;101787.94;5073038;28;20103;-76
2023/04/26 09:05:22;;;;;;;9.00;3.17;;;;;;;7.50;66.62;101785.75;5087134;28;20518;-73
2023/04/26 09:07:56;;;;;;;5.68;3.03;;;;;;;7.65;66.95;101793.03;5088261;28;20644;-73
2023/04/26 09:10:22;;;;;;;15.18;3.08;;;;;;;7.74;63.35;101798.16;5087868;28;20046;-73
2023/04/26 09:12:52;;;;;;;6.80;3.20;;;;;;;7.71;64.22;101787.75;5087439;28;20028;-73
2023/04/26 09:15:20;;;;;;;11.32;3.42;;;;;;;7.75;62.73;101782.84;5077684;28;20032;-73
2023/04/26 09:17:45;;;;;;;8.90;3.10;;;;;;;7.86;65.21;101784.25;5084209;28;20028;-74
2023/04/26 09:20:27;;;;;;;7.28;3.00;;;;;;;8.05;66.80;101772.94;5080227;28;20024;-74
2023/04/26 09:23:02;;;;;;;7.90;2.92;;;;;;;8.24;66.88;101778.78;5073558;28;20433;-75
2023/04/26 09:25:29;;;;;;;11.70;3.53;;;;;;;8.45;66.10;101776.19;5074545;28;20435;-75
2023/04/26 09:27:57;;;;;;;7.75;3.00;;;;;;;8.52;60.98;101778.97;5073422;28;20035;-72
2023/04/26 09:30:23;;;;;;;8.65;3.17;;;;;;;8.46;59.94;101785.13;5076434;28;20028;-73
2023/04/26 09:32:53;;;;;;;8.85;3.00;;;;;;;8.42;59.38;101781.09;5075578;28;20033;-73
2023/04/26 09:35:30;;;;;;;9.68;3.38;;;;;;;8.39;60.83;101776.06;5071853;28;20029;-73
2023/04/26 09:38:03;;;;;;;11.23;2.97;;;;;;;8.27;60.24;101781.09;5078865;28;20037;-73
2023/04/26 09:40:33;;;;;;;8.10;3.42;;;;;;;8.28;60.90;101782.78;5058290;28;20501;-74
2023/04/26 09:43:03;;;;;;;5.80;2.95;;;;;;;8.27;60.56;101783.78;5079060;28;20110;-73
2023/04/26 09:45:31;;;;;;;11.07;3.10;;;;;;;8.25;60.33;101786.69;5080687;28;20376;-72
2023/04/26 09:48:15;;;;;;;5.63;2.67;;;;;;;8.34;61.46;101782.84;5093428;28;20100;-74
2023/04/26 09:51:13;;;;;;;10.30;3.03;;;;;;;8.34;59.51;101782.84;5093350;28;20039;-77
2023/04/26 09:53:45;;;;;;;8.75;2.90;;;;;;;8.30;57.13;101786.13;5059283;28;20044;-74
2023/04/26 09:56:13;;;;;;;7.35;3.30;;;;;;;8.29;58.69;101779.91;5093228;28;20479;-73
2023/04/26 09:58:58;;;;;;;6.22;2.92;;;;;;;8.39;60.16;101778.78;5082230;28;20519;-73
2023/04/26 10:01:28;;;;;;;7.88;3.00;;;;;;;8.32;56.99;101776.81;5087811;28;20028;-73
2023/04/26 10:04:03;;;;;;;10.25;3.22;;;;;;;8.31;57.26;101772.44;5083780;28;20058;-74
2023/04/26 10:06:29;;;;;;;8.43;3.50;;;;;;;8.36;58.61;101781.84;5078080;28;20075;-73
2023/04/26 10:08:57;;;;;;;7.70;3.45;;;;;;;8.32;58.20;101784.09;5072692;28;20475;-73
2023/04/26 10:11:23;;;;;;;9.45;3.40;;;;;;;8.23;56.65;101785.19;5072965;28;20493;-74
2023/04/26 10:13:50;;;;;;;13.40;3.42;;;;;;;8.08;57.14;101774.44;5078834;28;20128;-74
2023/04/26 10:16:15;;;;;;;7.30;3.00;;;;;;;8.01;55.47;101777.00;5054086;28;20021;-74
2023/04/26 10:18:41;;;;;;;7.97;3.00;;;;;;;7.94;55.99;101778.75;5054204;28;20522;-73
2023/04/26 10:21:34;;;;;;;10.45;3.53;;;;;;;7.98;58.95;101780.06;5072723;28;20029;-74
2023/04/26 10:24:00;;;;;;;6.07;3.63;;;;;;;7.96;59.32;101777.56;5054302;28;20071;-74
2023/04/26 10:26:52;;;;;;;11.52;3.53;;;;;;;7.94;58.87;101776.94;5071573;28;20036;-74
2023/04/26 10:29:21;;;;;;;8.68;3.70;;;;;;;7.86;58.55;101779.69;5072549;28;20029;-74
2023/04/26 10:32:04;;;;;;;9.02;3.60;;;;;;;7.84;59.37;101776.34;5053671;28;20039;-74
2023/04/26 10:34:32;;;;;;;8.40;3.88;;;;;;;7.85;59.55;101775.34;5053883;28;20492;-74
2023/04/26 10:37:14;;;;;;;11.70;4.03;;;;;;;7.88;61.14;101772.28;5074116;28;20039;-74
2023/04/26 10:39:45;;;;;;;10.30;4.50;;;;;;;7.88;59.41;101780.34;5080900;28;20437;-74
2023/04/26 10:42:29;;;;;;;8.57;3.92;;;;;;;7.86;60.05;101768.91;5073930;28;20032;-73
2023/04/26 10:45:27;;;;;;;7.18;3.80;;;;;;;7.93;60.91;101764.47;5068866;28;20060;-74
2023/04/26 10:48:17;;;;;;;8.60;4.03;;;;;;;7.99;61.01;101768.28;5058080;28;20456;-77
2023/04/26 10:50:58;;;;;;;8.60;4.10;;;;;;;8.07;60.29;101764.66;5062515;28;20565;-74
2023/04/26 10:53:23;;;;;;;14.18;4.47;;;;;;;8.05;59.30;101759.44;5073451;28;20024;-74
2023/04/26 10:55:49;;;;;;;9.82;4.00;;;;;;;8.11;59.46;101765.97;5073022;28;20035;-73
2023/04/26 10:58:31;;;;;;;7.50;4.32;;;;;;;8.15;60.63;101764.56;5093151;28;20028;-73
2023/04/26 11:01:16;;;;;;;10.65;4.40;;;;;;;8.24;60.55;101763.44;5091016;28;20039;-73
2023/04/26 11:03:42;;;;;;;10.10;4.38;;;;;;;8.31;59.52;101767.06;5073947;28;20048;-73
2023/04/26 11:06:12;;;;;;;7.07;4.10;;;;;;;8.33;58.67;101764.16;5071727;28;20081;-73
2023/04/26 11:08:38;;;;;;;7.78;4.38;;;;;;;8.45;62.73;101751.06;5070186;28;20020;-73
2023/04/26 11:11:03;;;;;;;12.57;4.88;;;;;;;8.66;64.21;101753.81;5071165;28;20388;-75
2023/04/26 11:13:36;;;;;;;9.15;4.38;;;;;;;8.65;58.92;101752.16;5085820;28;20063;-74
2023/04/26 11:16:04;;;;;;;10.48;4.57;;;;;;;8.75;59.00;101751.00;5077686;28;20037;-73
2023/04/26 11:18:31;;;;;;;9.63;4.28;;;;;;;8.75;56.23;101757.25;5072630;28;20035;-74
2023/04/26 11:20:59;;;;;;;10.90;4.45;;;;;;;8.72;57.37;101754.09;5071109;28;20519;-74
2023/04/26 11:23:27;;;;;;;8.63;3.90;;;;;;;8.71;54.46;101749.72;5070925;28;20071;-74
2023/04/26 11:25:53;;;;;;;6.32;4.03;;;;;;;8.85;57.04;101743.44;5070850;28;20033;-74
2023/04/26 11:28:22;;;;;;;10.88;4.00;;;;;;;8.97;55.07;101739.22;5066381;28;20040;-74
2023/04/26 11:30:48;;;;;;;9.05;4.05;;;;;;;9.14;55.86;101733.56;5081246;28;20028;-74
2023/04/26 11:33:19;;;;;;;8.65;3.80;;;;;;;9.31;55.05;101724.13;5072046;28;20040;-74
2023/04/26 11:35:54;;;;;;;6.22;3.72;;;;;;;9.47;54.35;101722.19;5070884;28;20074;-74
2023/04/26 11:38:26;;;;;;;13.38;4.75;;;;;;;9.55;55.62;101719.34;5070183;28;20032;-74
2023/04/26 11:41:00;;;;;;;8.55;3.92;;;;;;;9.54;54.10;101717.66;5072123;28;20036;-74
2023/04/26 11:43:36;;;;;;;7.28;4.50;;;;;;;9.47;53.48;101727.59;5075074;28;20036;-75
2023/04/26 11:46:02;;;;;;;11.10;4.53;;;;;;;9.36;55.02;101729.81;5076983;28;20036;-74
2023/04/26 11:48:29;;;;;;;14.10;5.30;;;;;;;9.22;54.94;101725.31;5070696;28;20494;-74
2023/04/26 11:50:59;;;;;;;9.32;5.18;;;;;;;9.12;55.68;101730.19;5070562;28;20060;-74
2023/04/26 11:53:33;;;;;;;15.13;6.05;;;;;;;9.05;54.98;101730.97;5069388;28;22117;-74
2023/04/26 11:55:59;;;;;;;11.40;5.03;;;;;;;9.03;55.75;101732.22;5083338;28;20033;-74
2023/04/26 11:58:24;;;;;;;10.32;5.45;;;;;;;9.03;56.37;101738.44;5069714;28;20040;-74
2023/04/26 12:01:03;;;;;;;12.75;5.68;;;;;;;9.04;56.66;101745.50;5070134;28;20028;-74
2023/04/26 12:03:31;;;;;;;10.55;5.13;;;;;;;9.02;55.32;101742.16;5074245;28;20518;-74
2023/04/26 12:05:56;;;;;;;14.05;5.15;;;;;;;8.88;57.12;101734.97;5076551;28;20021;-74
2023/04/26 12:08:26;;;;;;;8.50;4.72;;;;;;;8.94;58.11;101734.19;5068971;28;20082;-74
2023/04/26 12:10:52;;;;;;;12.95;4.65;;;;;;;9.08;57.29;101728.94;5070801;28;20028;-73
2023/04/26 12:13:19;;;;;;;11.90;4.88;;;;;;;9.12;56.34;101730.19;5069014;28;20060;-73
2023/04/26 12:15:45;;;;;;;12.32;5.13;;;;;;;9.18;56.98;101726.75;5068804;28;20032;-73
2023/04/26 12:18:13;;;;;;;14.05;5.40;;;;;;;9.32;57.29;101736.63;5090227;28;20364;-74
2023/04/26 12:20:41;;;;;;;10.35;5.30;;;;;;;9.35;53.33;101736.22;5092245;28;20093;-73
2023/04/26 12:23:08;;;;;;;9.75;5.32;;;;;;;9.34;53.44;101726.44;5090720;28;20036;-73
2023/04/26 12:25:36;;;;;;;13.15;5.25;;;;;;;9.44;52.99;101733.41;5092158;28;20395;-74
2023/04/26 12:28:10;;;;;;;10.50;5.10;;;;;;;9.42;51.86;101724.63;5074362;28;20035;-75
2023/04/26 12:30:39;;;;;;;9.63;4.90;;;;;;;9.44;53.07;101733.41;5060067;28;20067;-75
2023/04/26 12:33:05;;;;;;;11.60;5.32;;;;;;;9.48;53.19;101726.53;5090997;28;20028;-75
2023/04/26 12:35:31;;;;;;;9.40;4.80;;;;;;;9.53;55.47;101722.22;5073021;28;20505;-73
2023/04/26 12:37:59;;;;;;;11.50;4.30;;;;;;;9.68;55.97;101718.59;5069210;28;20139;-73
2023/04/26 12:40:25;;;;;;;11.63;3.92;;;;;;;9.80;55.33;101727.84;5071728;28;20029;-74
2023/04/26 12:42:51;;;;;;;35.10;7.78;;;;;;;9.90;53.90;101722.91;5070814;28;20028;-74
2023/04/26 12:45:18;;;;;;;9.13;5.43;;;;;;;9.90;52.62;101735.56;5086438;28;20024;-75
2023/04/26 12:47:44;;;;;;;11.77;5.78;;;;;;;9.76;53.33;101749.00;5090991;28;20059;-74
2023/04/26 12:50:11;;;;;;;10.45;5.20;;;;;;;9.56;53.82;101742.63;5090993;28;20086;-75
2023/04/26 12:52:40;;;;;;;22.33;6.43;;;;;;;9.61;54.91;101737.47;5075404;28;20032;-75
2023/04/26 12:55:13;;;;;;;14.82;5.88;;;;;;;9.72;55.42;101726.13;5073958;28;20021;-74
2023/04/26 12:57:42;;;;;;;13.38;5.93;;;;;;;9.84;58.44;101720.16;5075437;28;20074;-74
2023/04/26 13:00:14;;;;;;;16.15;6.32;;;;;;;9.90;55.46;101722.06;5074162;28;20077;-74
2023/04/26 13:02:46;;;;;;;13.27;5.40;;;;;;;9.90;56.05;101716.66;5072235;28;20024;-75
2023/04/26 13:05:13;;;;;;;10.70;5.38;;;;;;;9.85;53.26;101725.34;5090507;28;20107;-74
2023/04/26 13:07:42;;;;;;;16.08;6.57;;;;;;;9.77;54.15;101728.22;5073739;28;20104;-75
2023/04/26 13:10:09;;;;;;;10.10;5.50;;;;;;;9.66;51.54;101726.06;5074142;28;20415;-74
2023/04/26 13:12:35;;;;;;;10.27;5.45;;;;;;;9.58;49.29;101724.34;5075186;28;20031;-76
2023/04/26 13:15:01;;;;;;;10.02;5.82;;;;;;;9.61;50.15;101728.53;5073917;28;20418;-75
2023/04/26 13:17:26;;;;;;;21.13;6.40;;;;;;;9.63;52.05;101723.75;5074027;28;20119;-75
2023/04/26 13:19:52;;;;;;;16.70;5.93;;;;;;;9.64;50.58;101728.13;5074093;28;20039;-77
2023/04/26 13:22:23;;;;;;;12.00;5.93;;;;;;;9.72;51.21;101722.56;5078338;28;20028;-77
2023/04/26 13:24:58;;;;;;;11.35;5.60;;;;;;;9.73;51.47;101727.78;5089818;28;20033;-78
2023/04/26 13:27:23;;;;;;;8.90;5.03;;;;;;;9.68;51.82;101727.53;5074925;28;20028;-75
2023/04/26 13:29:52;;;;;;;16.08;5.43;;;;;;;9.69;51.70;101731.91;5075357;28;20035;-77
2023/04/26 13:32:38;;;;;;;10.65;5.20;;;;;;;9.67;51.13;101727.75;5073519;28;20078;-77
2023/04/26 13:35:13;;;;;;;8.82;4.40;;;;;;;9.58;50.04;101732.44;5090450;28;20126;-76
2023/04/26 13:37:39;;;;;;;10.13;4.78;;;;;;;9.65;50.06;101735.22;5086372;28;20025;-74
2023/04/26 13:40:05;;;;;;;8.40;4.03;;;;;;;9.68;51.03;101730.25;5075890;28;20124;-73
2023/04/26 13:42:33;;;;;;;9.70;4.85;;;;;;;9.72;50.63;101734.22;5072521;28;20103;-74
2023/04/26 13:45:08;;;;;;;10.00;4.40;;;;;;;9.75;49.34;101730.28;5070463;28;20029;-79
2023/04/26 13:47:33;;;;;;;9.57;4.47;;;;;;;9.79;50.28;101728.03;5076774;28;20037;-76
2023/04/26 13:49:59;;;;;;;8.65;4.65;;;;;;;9.95;50.01;101730.41;5087654;28;20031;-75
2023/04/26 13:52:27;;;;;;;12.77;5.30;;;;;;;10.05;50.63;101728.16;5074572;28;20103;-74
2023/04/26 13:54:53;;;;;;;8.90;4.72;;;;;;;10.19;49.80;101731.78;5074404;28;20468;-75
2023/04/26 13:57:24;;;;;;;11.07;5.13;;;;;;;10.19;49.69;101726.38;5072906;28;20025;-75
2023/04/26 13:59:49;;;;;;;12.30;5.70;;;;;;;10.35;51.59;101722.50;5054961;28;20487;-75
2023/04/26 14:02:15;;;;;;;7.32;4.68;;;;;;;10.45;52.68;101709.44;5051959;28;20056;-75
2023/04/26 14:04:40;;;;;;;11.93;5.25;;;;;;;10.50;50.60;101716.94;5057479;28;20054;-73
2023/04/26 14:07:08;;;;;;;8.10;4.38;;;;;;;10.55;50.37;101721.75;5086416;28;20024;-75
2023/04/26 14:09:34;;;;;;;8.93;4.47;;;;;;;10.66;49.46;101721.19;5075555;28;20119;-74
2023/04/26 14:11:59;;;;;;;6.82;4.35;;;;;;;10.76;50.83;101718.06;5074061;28;20060;-74
2023/04/26 14:14:25;;;;;;;13.25;4.93;;;;;;;10.77;50.56;101717.03;5072437;28;20081;-76
2023/04/26 14:16:50;;;;;;;6.88;3.78;;;;;;;10.64;47.97;101718.69;5074029;28;20033;-74
2023/04/26 14:19:16;;;;;;;10.32;4.40;;;;;;;10.63;48.92;101729.72;5075097;28;20032;-74
2023/04/26 14:21:41;;;;;;;12.60;4.20;;;;;;;10.49;47.82;101726.09;5073476;28;20069;-75
2023/04/26 14:24:10;;;;;;;7.32;3.95;;;;;;;10.35;47.76;101716.28;5073473;28;20033;-75
2023/04/26 14:26:36;;;;;;;7.53;4.13;;;;;;;10.33;47.58;101731.84;5069663;28;20399;-74
2023/04/26 14:29:01;;;;;;;10.98;4.22;;;;;;;10.26;48.24;101721.81;5084612;28;20028;-74
2023/04/26 14:31:28;;;;;;;10.75;4.28;;;;;;;10.21;47.14;101723.47;5089334;28;20031;-74
2023/04/26 14:33:56;;;;;;;10.50;4.25;;;;;;;10.14;47.65;101731.53;5065098;28;20480;-75
2023/04/26 14:36:22;;;;;;;8.65;3.83;;;;;;;10.18;50.37;101727.41;5061998;28;20036;-75
2023/04/26 14:38:47;;;;;;;10.10;3.58;;;;;;;10.05;47.24;101735.44;5080682;28;20077;-74
2023/04/26 14:41:17;;;;;;;7.90;3.42;;;;;;;9.96;47.33;101720.44;5071637;28;20520;-74
2023/04/26 14:43:44;;;;;;;6.68;3.33;;;;;;;9.89;46.85;101723.94;5073383;28;20025;-75
2023/04/26 14:46:10;;;;;;;6.88;3.20;;;;;;;9.93;48.46;101722.50;5072177;28;20029;-75
2023/04/26 14:48:36;;;;;;;11.23;4.05;;;;;;;9.93;49.20;101721.66;5073711;28;20098;-76
2023/04/26 14:51:01;;;;;;;5.45;3.67;;;;;;;9.88;48.32;101719.53;5063869;28;20032;-75
2023/04/26 14:53:27;;;;;;;6.05;3.13;;;;;;;9.88;47.20;101724.13;5067518;28;20033;-75
2023/04/26 14:55:56;;;;;;;10.48;4.03;;;;;;;9.83;48.89;101721.16;5073211;28;20037;-76
2023/04/26 14:58:22;;;;;;;6.38;3.20;;;;;;;9.87;48.63;101717.03;5071931;28;20024;-75
2023/04/26 15:00:47;;;;;;;8.38;3.83;;;;;;;9.90;48.84;101716.66;5069102;28;20033;-75
2023/04/26 15:03:12;;;;;;;7.85;3.60;;;;;;;9.97;48.92;101722.94;5070913;28;20472;-75
2023/04/26 15:05:38;;;;;;;7.53;3.53;;;;;;;10.03;49.06;101715.91;5068027;28;20392;-75
2023/04/26 15:08:04;;;;;;;9.57;3.40;;;;;;;10.02;46.49;101717.75;5085025;28;20091;-73
2023/04/26 15:10:29;;;;;;;6.85;3.80;;;;;;;10.08;48.47;101713.41;5093201;28;20035;-74
2023/04/26 15:12:55;;;;;;;8.57;3.55;;;;;;;10.15;48.35;101713.47;5077828;28;20120;-73
2023/04/26 15:15:21;;;;;;;10.50;3.67;;;;;;;10.11;46.61;101707.59;5073543;28;20032;-75
2023/04/26 15:17:46;;;;;;;12.43;3.50;;;;;;;10.19;47.90;101703.88;5088204;28;20460;-74
2023/04/26 15:20:12;;;;;;;5.60;3.08;;;;;;;10.30;48.92;101700.63;5079105;28;20033;-75
2023/04/26 15:22:37;;;;;;;5.75;3.40;;;;;;;10.41;49.25;101699.22;5070848;28;20487;-75
2023/04/26 15:25:03;;;;;;;9.57;3.70;;;;;;;10.48;49.11;101693.81;5076485;28;20030;-75
2023/04/26 15:27:28;;;;;;;11.80;3.70;;;;;;;10.50;48.69;101686.34;5079849;28;20417;-75
2023/04/26 15:29:55;;;;;;;7.32;3.33;;;;;;;10.49;47.63;101690.91;5078509;28;20028;-74
2023/04/26 15:32:20;;;;;;;6.72;3.85;;;;;;;10.56;47.60;101693.66;5078462;28;20047;-76
2023/04/26 15:34:46;;;;;;;7.47;3.42;;;;;;;10.51;47.01;101701.53;5084567;28;20396;-74
2023/04/26 15:37:12;;;;;;;9.65;4.03;;;;;;;10.61;49.38;101693.88;5072202;28;20051;-74
2023/04/26 15:39:37;;;;;;;8.77;3.80;;;;;;;10.70;50.07;101692.63;5072601;28;20035;-74
2023/04/26 15:42:04;;;;;;;9.45;3.58;;;;;;;10.80;48.43;101690.38;5071685;28;20465;-74
2023/04/26 15:44:30;;;;;;;6.80;3.50;;;;;;;10.90;48.96;101695.41;5059267;28;20048;-76
2023/04/26 15:46:55;;;;;;;9.05;3.80;;;;;;;10.80;47.61;101693.06;5070028;28;20389;-77
2023/04/26 15:49:25;;;;;;;9.52;3.90;;;;;;;10.78;48.49;101694.34;5070866;28;20025;-76
2023/04/26 15:51:56;;;;;;;8.55;3.55;;;;;;;10.69;48.74;101693.69;5070733;28;20455;-76
2023/04/26 15:54:34;;;;;;;6.13;3.40;;;;;;;10.67;48.31;101693.03;5070133;28;20028;-81
2023/04/26 15:56:59;;;;;;;9.27;3.67;;;;;;;10.63;48.26;101683.69;5070260;28;20115;-75
2023/04/26 15:59:25;;;;;;;9.73;3.40;;;;;;;10.66;48.45;101682.44;5068617;28;20128;-74
